Pettit, Oklahoma
Current Conditions -  °F | °C
As of 11:35 PM on Wednesday 17 Dec 2014 (Local Time) from KTQH Reporting Station
Overcast Overcast  
Wind Chill: -2°   Ceiling: 3600
Heat Index:   Visibility: 10mi
Dew Point:   Wind: 6mph
Humidity: 93%   Direction: 140°SE
Pressure: 30.2"   Gusts: NA
Location:  35.7526°N, 95.024°W
Report Text: KTQH 180535Z AUTO 14005KT 10SM SCT013 OVC036 01/00 A3020 RMK AO2
Loading
Personal Weather Stations






























Interactive Weather Map New forecast layout! Learn more

10-Day Weather Forecast

Advertisements
Track Severe Weather on mobile